Time;durP1;ratioP1;P1;durP2;ratioP2;P2;SDS_P1;SDS_P2;PMS_P1;PMS_P2;Temp;Humidity;BMP_temperature;BMP_pressure;BME280_temperature;BME280_humidity;BME280_pressure;Samples;Min_cycle;Max_cycle;Signal;HPM_P1;HPM_P2
2023/04/24 00:01:00;;;;;;;6.45;5.25;;;;;;;;;;5058820;28;20048;-76
2023/04/24 00:03:27;;;;;;;8.82;5.47;;;;;;;;;;5047577;28;20053;-76
2023/04/24 00:05:54;;;;;;;5.78;4.65;;;;;;;;;;5059999;28;20492;-76
2023/04/24 00:08:21;;;;;;;6.10;4.05;;;;;;;;;;5040018;28;20087;-76
2023/04/24 00:10:47;;;;;;;5.43;4.25;;;;;;;;;;5046186;28;20040;-76
2023/04/24 00:13:13;;;;;;;3.33;3.03;;;;;;;;;;5058499;28;20032;-76
2023/04/24 00:15:39;;;;;;;3.58;3.28;;;;;;;;;;5044703;28;20053;-76
2023/04/24 00:18:05;;;;;;;4.20;3.15;;;;;;;;;;5044763;28;20037;-76
2023/04/24 00:20:35;;;;;;;3.03;2.75;;;;;;;;;;5066565;28;20071;-76
2023/04/24 00:23:01;;;;;;;3.30;3.00;;;;;;;;;;5050608;28;20032;-75
2023/04/24 00:25:27;;;;;;;3.33;3.00;;;;;;;;;;5049113;28;20044;-76
2023/04/24 00:27:53;;;;;;;3.75;3.22;;;;;;;;;;5047324;28;20055;-76
2023/04/24 00:30:19;;;;;;;4.97;3.13;;;;;;;;;;5048232;28;20051;-76
2023/04/24 00:32:45;;;;;;;4.03;3.30;;;;;;;;;;5060524;28;20037;-76
2023/04/24 00:35:11;;;;;;;3.60;3.30;;;;;;;;;;5066932;28;20503;-76
2023/04/24 00:37:37;;;;;;;4.97;3.65;;;;;;;;;;5050104;28;20135;-76
2023/04/24 00:40:03;;;;;;;4.78;3.38;;;;;;;;;;5069305;28;20040;-76
2023/04/24 00:42:29;;;;;;;5.35;4.10;;;;;;;;;;5050607;28;20044;-76
2023/04/24 00:44:57;;;;;;;6.40;4.32;;;;;;;;;;5042419;28;20056;-76
2023/04/24 00:47:23;;;;;;;4.95;4.18;;;;;;;;;;5064134;28;20071;-76
2023/04/24 00:49:49;;;;;;;4.50;4.10;;;;;;;;;;5047048;28;20048;-76
2023/04/24 00:52:17;;;;;;;4.38;3.83;;;;;;;;;;5051141;28;20168;-76
2023/04/24 00:54:45;;;;;;;4.07;3.67;;;;;;;;;;5058021;28;20408;-76
2023/04/24 00:57:11;;;;;;;3.92;3.53;;;;;;;;;;5060676;28;20554;-76
2023/04/24 00:59:37;;;;;;;4.20;3.83;;;;;;;;;;5065426;28;20515;-76
2023/04/24 01:02:03;;;;;;;5.97;4.38;;;;;;;;;;5046357;28;20052;-76
2023/04/24 01:04:29;;;;;;;6.05;4.20;;;;;;;;;;5046032;28;20263;-76
2023/04/24 01:06:55;;;;;;;7.07;3.33;;;;;;;;;;5068613;28;20050;-76
2023/04/24 01:09:22;;;;;;;4.60;3.15;;;;;;;;;;5067133;28;20125;-76
2023/04/24 01:11:48;;;;;;;3.70;3.00;;;;;;;;;;5071337;28;20051;-75
2023/04/24 01:14:14;;;;;;;3.20;2.97;;;;;;;;;;5060147;28;20033;-75
2023/04/24 01:16:41;;;;;;;2.97;2.67;;;;;;;;;;5048857;28;20040;-75
2023/04/24 01:19:07;;;;;;;3.50;3.15;;;;;;;;;;5040898;28;20041;-75
2023/04/24 01:21:37;;;;;;;3.65;3.35;;;;;;;;;;5048517;28;20049;-76
2023/04/24 01:24:03;;;;;;;4.65;3.13;;;;;;;;;;5044683;28;20045;-75
2023/04/24 01:26:29;;;;;;;6.80;3.78;;;;;;;;;;5046342;28;21358;-75
2023/04/24 01:28:55;;;;;;;3.92;3.50;;;;;;;;;;5063716;28;20073;-75
2023/04/24 01:31:22;;;;;;;3.50;3.20;;;;;;;;;;5061448;28;20037;-75
2023/04/24 01:33:48;;;;;;;6.25;3.20;;;;;;;;;;5050088;28;20044;-75
2023/04/24 01:36:14;;;;;;;4.28;3.20;;;;;;;;;;5067835;28;20040;-75
2023/04/24 01:38:40;;;;;;;3.95;3.40;;;;;;;;;;5063872;28;20063;-75
2023/04/24 01:41:06;;;;;;;4.13;3.33;;;;;;;;;;5050647;28;20047;-75
2023/04/24 01:43:32;;;;;;;4.32;3.28;;;;;;;;;;5041213;28;20037;-75
2023/04/24 01:45:58;;;;;;;3.58;3.13;;;;;;;;;;5049897;28;20036;-76
2023/04/24 01:48:24;;;;;;;3.17;2.88;;;;;;;;;;5051315;28;20102;-76
2023/04/24 01:50:50;;;;;;;5.57;2.83;;;;;;;;;;5067981;28;20041;-76
2023/04/24 01:53:16;;;;;;;3.03;2.72;;;;;;;;;;5058098;28;20451;-76
2023/04/24 01:55:42;;;;;;;2.95;2.70;;;;;;;;;;5056025;28;20620;-76
2023/04/24 01:58:08;;;;;;;2.70;2.50;;;;;;;;;;5064705;28;20045;-76
2023/04/24 02:00:34;;;;;;;4.47;2.80;;;;;;;;;;5038315;28;20049;-75
2023/04/24 02:03:01;;;;;;;2.88;2.45;;;;;;;;;;5045626;28;20041;-75
2023/04/24 02:05:27;;;;;;;6.20;2.90;;;;;;;;;;5063690;28;20512;-75
2023/04/24 02:07:54;;;;;;;3.25;2.40;;;;;;;;;;5063304;28;20070;-75
2023/04/24 02:10:20;;;;;;;4.03;2.28;;;;;;;;;;5048560;28;20065;-75
2023/04/24 02:12:46;;;;;;;3.13;2.42;;;;;;;;;;5065412;28;20087;-75
2023/04/24 02:15:12;;;;;;;4.50;3.00;;;;;;;;;;5038416;28;20411;-75
2023/04/24 02:17:38;;;;;;;2.90;2.67;;;;;;;;;;5052331;28;20124;-75
2023/04/24 02:20:06;;;;;;;3.55;2.85;;;;;;;;;;5047232;28;20519;-75
2023/04/24 02:22:32;;;;;;;5.03;3.25;;;;;;;;;;5050016;28;20049;-75
2023/04/24 02:24:58;;;;;;;5.18;3.92;;;;;;;;;;5043393;28;20060;-75
2023/04/24 02:27:24;;;;;;;6.28;4.60;;;;;;;;;;5042935;28;20087;-75
2023/04/24 02:29:50;;;;;;;6.43;4.50;;;;;;;;;;5039590;28;20045;-75
2023/04/24 02:32:16;;;;;;;5.35;4.47;;;;;;;;;;5039314;28;20044;-75
2023/04/24 02:34:42;;;;;;;4.70;4.05;;;;;;;;;;5065249;28;20063;-75
2023/04/24 02:37:08;;;;;;;6.95;4.65;;;;;;;;;;5061338;28;20044;-75
2023/04/24 02:39:34;;;;;;;6.55;4.75;;;;;;;;;;5064845;28;20047;-75
2023/04/24 02:42:01;;;;;;;5.97;4.82;;;;;;;;;;5064055;28;20450;-76
2023/04/24 02:44:27;;;;;;;3.58;3.28;;;;;;;;;;5057873;28;20083;-76
2023/04/24 02:46:53;;;;;;;3.22;2.92;;;;;;;;;;5064988;28;20044;-76
2023/04/24 02:49:19;;;;;;;2.63;2.42;;;;;;;;;;5036226;28;20048;-76
2023/04/24 02:51:45;;;;;;;3.28;2.65;;;;;;;;;;5043019;28;20044;-75
2023/04/24 02:54:11;;;;;;;4.03;3.13;;;;;;;;;;5063035;28;20114;-75
2023/04/24 02:56:37;;;;;;;3.47;3.15;;;;;;;;;;5061315;28;20489;-76
2023/04/24 02:59:03;;;;;;;4.50;3.30;;;;;;;;;;5063514;28;20131;-76
2023/04/24 03:01:29;;;;;;;3.20;2.92;;;;;;;;;;5040265;28;20057;-76
2023/04/24 03:03:55;;;;;;;5.35;3.03;;;;;;;;;;5065955;28;20044;-76
2023/04/24 03:06:21;;;;;;;4.07;3.53;;;;;;;;;;5063911;28;20097;-75
2023/04/24 03:08:47;;;;;;;4.50;3.90;;;;;;;;;;5069135;28;20064;-76
2023/04/24 03:11:13;;;;;;;6.40;4.35;;;;;;;;;;5037687;28;20076;-76
2023/04/24 03:13:39;;;;;;;5.40;4.30;;;;;;;;;;5056190;28;20548;-76
2023/04/24 03:16:05;;;;;;;5.10;4.60;;;;;;;;;;5061571;28;20488;-76
2023/04/24 03:18:31;;;;;;;4.30;3.65;;;;;;;;;;5049218;28;20511;-76
2023/04/24 03:20:58;;;;;;;4.85;3.88;;;;;;;;;;5043955;28;20049;-76
2023/04/24 03:23:24;;;;;;;7.40;4.70;;;;;;;;;;5063839;28;20040;-76
2023/04/24 03:25:50;;;;;;;5.50;4.38;;;;;;;;;;5058479;28;20048;-76
2023/04/24 03:28:16;;;;;;;5.13;4.07;;;;;;;;;;5060094;28;20044;-76
2023/04/24 03:30:42;;;;;;;5.20;4.28;;;;;;;;;;5037778;28;20056;-76
2023/04/24 03:33:08;;;;;;;5.55;4.20;;;;;;;;;;5066227;28;20040;-76
2023/04/24 03:35:34;;;;;;;7.38;4.65;;;;;;;;;;5047951;28;20507;-76
2023/04/24 03:38:00;;;;;;;5.60;3.90;;;;;;;;;;5059638;28;20037;-76
2023/04/24 03:40:26;;;;;;;5.30;3.90;;;;;;;;;;5066921;28;20269;-76
2023/04/24 03:42:52;;;;;;;5.43;3.97;;;;;;;;;;5061664;28;20040;-76
2023/04/24 03:45:18;;;;;;;6.35;3.72;;;;;;;;;;5046408;28;20040;-76
2023/04/24 03:47:44;;;;;;;6.15;3.40;;;;;;;;;;5037979;28;20032;-76
2023/04/24 03:50:10;;;;;;;6.13;3.80;;;;;;;;;;5042892;28;20048;-76
2023/04/24 03:52:36;;;;;;;4.82;3.50;;;;;;;;;;5056205;28;20119;-76
2023/04/24 03:55:02;;;;;;;7.20;4.03;;;;;;;;;;5043901;28;20147;-76
2023/04/24 03:57:28;;;;;;;5.88;4.25;;;;;;;;;;5062072;28;20083;-76
2023/04/24 03:59:55;;;;;;;8.27;4.53;;;;;;;;;;5058894;28;20407;-76
2023/04/24 04:02:21;;;;;;;5.90;4.18;;;;;;;;;;5056940;28;20059;-76
2023/04/24 04:04:47;;;;;;;6.72;3.95;;;;;;;;;;5058921;28;20132;-76
2023/04/24 04:07:13;;;;;;;5.55;3.47;;;;;;;;;;5043257;28;20041;-76
2023/04/24 04:09:39;;;;;;;6.35;3.72;;;;;;;;;;5063543;28;20403;-76
2023/04/24 04:12:05;;;;;;;7.40;3.85;;;;;;;;;;5065868;28;20052;-76
2023/04/24 04:14:31;;;;;;;5.65;3.72;;;;;;;;;;5042605;28;20044;-76
2023/04/24 04:16:57;;;;;;;5.00;3.80;;;;;;;;;;5042744;28;20040;-76
2023/04/24 04:19:23;;;;;;;4.30;3.65;;;;;;;;;;5066717;28;20072;-76
2023/04/24 04:21:52;;;;;;;8.68;3.95;;;;;;;;;;5046053;28;20098;-76
2023/04/24 04:24:20;;;;;;;7.95;4.30;;;;;;;;;;5047233;28;20118;-76
2023/04/24 04:26:46;;;;;;;9.00;5.03;;;;;;;;;;5044523;28;20044;-76
2023/04/24 04:29:13;;;;;;;6.35;4.65;;;;;;;;;;5046798;28;20076;-76
2023/04/24 04:31:39;;;;;;;8.10;5.28;;;;;;;;;;5039492;28;20041;-77
2023/04/24 04:34:05;;;;;;;7.03;5.07;;;;;;;;;;5041748;28;20044;-77
2023/04/24 04:36:32;;;;;;;6.15;4.70;;;;;;;;;;5060507;28;20488;-76
2023/04/24 04:38:59;;;;;;;7.72;4.35;;;;;;;;;;5048906;28;20036;-76
2023/04/24 04:41:26;;;;;;;5.78;4.07;;;;;;;;;;5037159;28;20045;-77
2023/04/24 04:43:52;;;;;;;5.75;4.30;;;;;;;;;;5059437;28;20032;-77
2023/04/24 04:46:18;;;;;;;6.10;4.32;;;;;;;;;;5038041;28;20488;-76
2023/04/24 04:48:45;;;;;;;6.32;3.85;;;;;;;;;;5046124;28;20485;-77
2023/04/24 04:51:11;;;;;;;5.85;4.10;;;;;;;;;;5064704;28;20052;-76
2023/04/24 04:53:37;;;;;;;4.85;3.50;;;;;;;;;;5038839;28;20389;-77
2023/04/24 04:56:03;;;;;;;3.55;3.25;;;;;;;;;;5042492;28;20159;-76
2023/04/24 04:58:30;;;;;;;4.65;3.70;;;;;;;;;;5057551;28;20555;-77
2023/04/24 05:00:57;;;;;;;4.43;3.90;;;;;;;;;;5053591;28;20171;-76
2023/04/24 05:03:23;;;;;;;5.00;3.50;;;;;;;;;;5041082;28;20381;-76
2023/04/24 05:05:52;;;;;;;9.00;4.50;;;;;;;;;;5051740;28;20102;-76
2023/04/24 05:08:18;;;;;;;5.85;4.57;;;;;;;;;;5062354;28;20048;-76
2023/04/24 05:10:44;;;;;;;8.13;4.20;;;;;;;;;;5054797;28;20048;-76
2023/04/24 05:13:10;;;;;;;7.10;3.55;;;;;;;;;;5040040;28;20495;-76
2023/04/24 05:15:36;;;;;;;3.55;3.25;;;;;;;;;;5063059;28;20040;-76
2023/04/24 05:18:02;;;;;;;3.97;3.17;;;;;;;;;;5066303;28;20036;-76
2023/04/24 05:20:28;;;;;;;6.22;3.35;;;;;;;;;;5062832;28;20431;-76
2023/04/24 05:22:55;;;;;;;4.07;2.58;;;;;;;;;;5045279;28;20098;-76
2023/04/24 05:25:21;;;;;;;3.05;2.20;;;;;;;;;;5065219;28;20094;-76
2023/04/24 05:27:47;;;;;;;3.22;2.70;;;;;;;;;;5070508;28;20467;-76
2023/04/24 05:30:13;;;;;;;4.50;2.70;;;;;;;;;;5045815;28;20044;-76
2023/04/24 05:32:39;;;;;;;7.35;3.40;;;;;;;;;;5044149;28;20413;-76
2023/04/24 05:35:05;;;;;;;6.43;3.95;;;;;;;;;;5067582;28;20052;-76
2023/04/24 05:37:31;;;;;;;8.90;4.57;;;;;;;;;;5045123;28;20040;-76
2023/04/24 05:39:57;;;;;;;8.00;4.90;;;;;;;;;;5044701;28;20040;-76
2023/04/24 05:42:23;;;;;;;8.43;5.60;;;;;;;;;;5062753;28;20073;-76
2023/04/24 05:44:49;;;;;;;11.90;8.02;;;;;;;;;;5058060;28;20086;-76
2023/04/24 05:47:15;;;;;;;13.98;9.40;;;;;;;;;;5056500;28;20045;-76
2023/04/24 05:49:41;;;;;;;12.13;7.47;;;;;;;;;;5043143;28;20182;-74
2023/04/24 05:52:08;;;;;;;14.25;8.35;;;;;;;;;;5048715;28;20044;-76
2023/04/24 05:54:35;;;;;;;19.25;10.98;;;;;;;;;;5050143;28;20115;-75
2023/04/24 05:57:04;;;;;;;16.10;9.30;;;;;;;;;;5048911;28;20487;-76
2023/04/24 05:59:30;;;;;;;13.15;9.00;;;;;;;;;;5070285;28;20040;-76
2023/04/24 06:01:56;;;;;;;17.40;10.75;;;;;;;;;;5046544;28;20132;-76
2023/04/24 06:04:22;;;;;;;18.25;10.75;;;;;;;;;;5040636;28;20128;-76
2023/04/24 06:06:50;;;;;;;14.23;10.57;;;;;;;;;;5045982;28;20112;-76
2023/04/24 06:09:17;;;;;;;20.85;12.38;;;;;;;;;;5068833;28;20525;-76
2023/04/24 06:11:43;;;;;;;16.38;11.18;;;;;;;;;;5059372;28;20037;-76
2023/04/24 06:14:09;;;;;;;19.10;12.32;;;;;;;;;;5065642;28;20102;-76
2023/04/24 06:16:35;;;;;;;23.98;13.43;;;;;;;;;;5048119;28;20040;-76
2023/04/24 06:19:04;;;;;;;22.40;14.07;;;;;;;;;;5063024;28;20070;-76
2023/04/24 06:21:31;;;;;;;21.55;13.40;;;;;;;;;;5075889;28;20045;-76
2023/04/24 06:23:57;;;;;;;23.00;13.50;;;;;;;;;;5048420;28;20489;-76
2023/04/24 06:26:24;;;;;;;18.10;12.38;;;;;;;;;;5061668;28;20044;-76
2023/04/24 06:28:51;;;;;;;20.67;12.07;;;;;;;;;;5044701;28;20084;-75
2023/04/24 06:31:17;;;;;;;19.80;12.13;;;;;;;;;;5044763;28;20048;-76
2023/04/24 06:33:43;;;;;;;16.80;12.02;;;;;;;;;;5061620;28;20060;-76
2023/04/24 06:36:10;;;;;;;14.32;11.88;;;;;;;;;;5058926;28;20103;-76
2023/04/24 06:38:36;;;;;;;15.55;10.80;;;;;;;;;;5042756;28;20045;-75
2023/04/24 06:41:03;;;;;;;15.77;10.20;;;;;;;;;;5049353;28;20546;-75
2023/04/24 06:43:29;;;;;;;15.25;9.00;;;;;;;;;;5041910;28;20052;-76
2023/04/24 06:45:55;;;;;;;13.40;9.07;;;;;;;;;;5048148;28;20500;-76
2023/04/24 06:48:21;;;;;;;14.45;8.73;;;;;;;;;;5040539;28;20041;-75
2023/04/24 06:50:47;;;;;;;16.38;8.80;;;;;;;;;;5065405;28;20048;-78
2023/04/24 06:53:14;;;;;;;14.25;8.38;;;;;;;;;;5043146;28;20128;-76
2023/04/24 06:55:40;;;;;;;12.60;8.45;;;;;;;;;;5060479;28;20095;-76
2023/04/24 06:58:07;;;;;;;14.77;8.75;;;;;;;;;;5043949;28;20080;-76
2023/04/24 07:00:33;;;;;;;14.50;8.05;;;;;;;;;;5057433;28;20470;-76
2023/04/24 07:02:59;;;;;;;9.85;7.07;;;;;;;;;;5043231;28;20143;-76
2023/04/24 07:05:25;;;;;;;10.73;7.38;;;;;;;;;;5058087;28;20045;-76
2023/04/24 07:07:51;;;;;;;12.43;7.03;;;;;;;;;;5044502;28;20036;-75
2023/04/24 07:10:18;;;;;;;13.48;7.82;;;;;;;;;;5074714;28;20048;-75
2023/04/24 07:12:44;;;;;;;14.15;7.90;;;;;;;;;;5062120;28;20047;-76
2023/04/24 07:15:10;;;;;;;14.82;7.80;;;;;;;;;;5057418;28;20046;-76
2023/04/24 07:17:38;;;;;;;13.23;7.25;;;;;;;;;;5040271;28;20040;-76
2023/04/24 07:20:05;;;;;;;15.00;7.47;;;;;;;;;;5061984;28;20442;-76
2023/04/24 07:22:31;;;;;;;13.65;7.28;;;;;;;;;;5042177;28;20049;-76
2023/04/24 07:24:57;;;;;;;12.18;7.28;;;;;;;;;;5063001;28;20115;-76
2023/04/24 07:27:23;;;;;;;13.05;7.25;;;;;;;;;;5060424;28;20140;-76
2023/04/24 07:29:49;;;;;;;13.38;7.15;;;;;;;;;;5043514;28;20070;-76
2023/04/24 07:32:15;;;;;;;10.68;6.30;;;;;;;;;;5038430;28;20072;-76
2023/04/24 07:34:41;;;;;;;9.13;7.07;;;;;;;;;;5045807;28;20079;-76
2023/04/24 07:37:07;;;;;;;9.90;7.28;;;;;;;;;;5054036;28;20128;-76
2023/04/24 07:39:33;;;;;;;10.70;6.22;;;;;;;;;;5063562;28;20044;-76
2023/04/24 07:41:59;;;;;;;13.73;6.35;;;;;;;;;;5051115;28;20045;-77
2023/04/24 07:44:25;;;;;;;10.25;5.90;;;;;;;;;;5040714;28;20049;-76
2023/04/24 07:46:51;;;;;;;8.60;5.63;;;;;;;;;;5045519;28;20497;-76
2023/04/24 07:49:17;;;;;;;14.15;6.82;;;;;;;;;;5038534;28;20061;-76
2023/04/24 07:51:43;;;;;;;10.88;6.30;;;;;;;;;;5058515;28;20123;-76
2023/04/24 07:54:09;;;;;;;5.72;5.13;;;;;;;;;;5039015;28;20500;-76
2023/04/24 07:56:38;;;;;;;8.30;5.15;;;;;;;;;;5036761;28;20057;-76
2023/04/24 07:59:04;;;;;;;9.20;5.60;;;;;;;;;;5039674;28;20037;-76
2023/04/24 08:01:30;;;;;;;11.43;5.03;;;;;;;;;;5039569;28;20045;-76
2023/04/24 08:03:56;;;;;;;8.77;4.68;;;;;;;;;;5032688;28;20076;-76
2023/04/24 08:06:23;;;;;;;12.52;5.28;;;;;;;;;;5044332;28;20048;-76
2023/04/24 08:08:49;;;;;;;11.85;5.18;;;;;;;;;;5038111;28;20076;-76
2023/04/24 08:11:15;;;;;;;8.88;4.88;;;;;;;;;;5037057;28;20390;-76
2023/04/24 08:13:41;;;;;;;11.02;5.13;;;;;;;;;;5043752;28;20439;-76
2023/04/24 08:16:07;;;;;;;12.32;5.75;;;;;;;;;;5048130;28;20048;-76
2023/04/24 08:18:34;;;;;;;13.52;5.38;;;;;;;;;;5034076;28;20122;-76
2023/04/24 08:21:01;;;;;;;10.90;4.97;;;;;;;;;;5037183;28;20041;-76
2023/04/24 08:23:28;;;;;;;8.15;4.55;;;;;;;;;;5033503;28;20076;-76
2023/04/24 08:25:54;;;;;;;8.45;4.55;;;;;;;;;;5037994;28;20112;-76
2023/04/24 08:28:20;;;;;;;9.45;5.10;;;;;;;;;;5039868;28;20045;-76
2023/04/24 08:30:54;;;;;;;11.73;4.85;;;;;;;;;;5034527;28;20050;-76
2023/04/24 08:33:20;;;;;;;16.10;5.63;;;;;;;;;;5038492;28;20132;-77
2023/04/24 08:35:46;;;;;;;16.08;4.78;;;;;;;;;;5045341;28;20076;-76
2023/04/24 08:38:12;;;;;;;10.88;3.65;;;;;;;;;;5040824;28;20373;-76
2023/04/24 08:40:39;;;;;;;14.35;4.90;;;;;;;;;;5047557;28;20769;-76
2023/04/24 08:43:05;;;;;;;9.60;3.60;;;;;;;;;;5045160;28;20111;-77
2023/04/24 08:45:33;;;;;;;12.15;4.40;;;;;;;;;;5050436;28;20063;-77
2023/04/24 08:48:00;;;;;;;12.52;4.13;;;;;;;;;;5044668;28;20119;-76
2023/04/24 08:50:26;;;;;;;10.50;3.92;;;;;;;;;;5051265;28;20661;-77
2023/04/24 08:52:53;;;;;;;8.13;4.07;;;;;;;;;;5054099;28;20366;-77
2023/04/24 08:55:20;;;;;;;11.32;4.45;;;;;;;;;;5045508;28;20107;-76
2023/04/24 08:57:49;;;;;;;6.32;3.42;;;;;;;;;;5070699;28;20048;-76
2023/04/24 09:00:15;;;;;;;8.93;3.40;;;;;;;;;;5069609;28;20084;-76
2023/04/24 09:02:43;;;;;;;10.23;4.10;;;;;;;;;;5043386;28;20100;-77
2023/04/24 09:05:10;;;;;;;9.88;3.83;;;;;;;;;;5062417;28;20048;-76
2023/04/24 09:07:39;;;;;;;10.38;3.92;;;;;;;;;;5067439;28;20064;-76
2023/04/24 09:10:07;;;;;;;11.95;3.78;;;;;;;;;;5049413;28;20044;-76
2023/04/24 09:12:34;;;;;;;12.15;3.72;;;;;;;;;;5051044;28;20068;-76
2023/04/24 09:15:01;;;;;;;9.35;3.75;;;;;;;;;;5044730;28;20130;-76
2023/04/24 09:17:28;;;;;;;9.38;3.50;;;;;;;;;;5072543;28;20060;-76
2023/04/24 09:19:57;;;;;;;10.95;3.35;;;;;;;;;;5066506;28;20472;-76
2023/04/24 09:22:23;;;;;;;10.18;3.38;;;;;;;;;;5041957;28;20430;-75
2023/04/24 09:25:00;;;;;;;9.88;3.47;;;;;;;;;;5060582;28;21206;-76
2023/04/24 09:27:28;;;;;;;10.95;3.50;;;;;;;;;;5046214;28;20055;-76
2023/04/24 09:29:58;;;;;;;10.15;3.33;;;;;;;;;;5043209;28;20053;-76
2023/04/24 09:32:29;;;;;;;8.95;3.83;;;;;;;;;;5066972;28;20496;-76
2023/04/24 09:35:25;;;;;;;11.48;3.40;;;;;;;;;;5047838;28;20045;-76
2023/04/24 09:37:51;;;;;;;13.20;3.90;;;;;;;;;;5031539;28;20048;-75
2023/04/24 09:40:21;;;;;;;9.10;3.47;;;;;;;;;;5061117;28;20129;-76
2023/04/24 09:42:52;;;;;;;14.88;2.92;;;;;;;;;;5068559;28;20481;-77
2023/04/24 09:45:18;;;;;;;10.50;3.55;;;;;;;;;;5045923;28;20480;-77
2023/04/24 09:47:44;;;;;;;6.68;2.85;;;;;;;;;;5064250;28;20068;-77
2023/04/24 09:50:11;;;;;;;10.20;3.65;;;;;;;;;;5039032;28;20091;-77
2023/04/24 09:52:41;;;;;;;13.27;3.00;;;;;;;;;;5069828;28;20052;-77
2023/04/24 09:55:18;;;;;;;12.93;3.80;;;;;;;;;;5069744;28;20060;-77
2023/04/24 09:57:54;;;;;;;8.55;3.40;;;;;;;;;;5056230;28;20041;-76
2023/04/24 10:00:30;;;;;;;6.68;2.90;;;;;;;;;;5042456;28;20045;-76
2023/04/24 10:03:00;;;;;;;9.70;3.20;;;;;;;;;;5063627;28;20037;-76
2023/04/24 10:05:33;;;;;;;12.63;2.75;;;;;;;;;;5050321;28;20079;-76
2023/04/24 10:08:05;;;;;;;11.88;3.25;;;;;;;;;;5070617;28;20103;-76
2023/04/24 10:10:32;;;;;;;8.85;2.72;;;;;;;;;;5070627;28;20527;-76
2023/04/24 10:13:00;;;;;;;8.85;2.85;;;;;;;;;;5047200;28;20056;-76
2023/04/24 10:15:26;;;;;;;10.80;3.20;;;;;;;;;;5063422;28;20075;-76
2023/04/24 10:17:53;;;;;;;10.25;2.95;;;;;;;;;;5069645;28;20074;-77
2023/04/24 10:20:22;;;;;;;7.05;2.92;;;;;;;;;;5064314;28;20049;-76
2023/04/24 10:22:52;;;;;;;5.05;2.65;;;;;;;;;;5058163;28;20127;-76
2023/04/24 10:25:22;;;;;;;7.20;2.85;;;;;;;;;;5052241;28;20051;-76
2023/04/24 10:27:49;;;;;;;6.00;2.40;;;;;;;;;;5059859;28;20512;-76
2023/04/24 10:30:15;;;;;;;8.15;2.80;;;;;;;;;;5043859;28;20057;-75
2023/04/24 10:32:41;;;;;;;3.17;2.13;;;;;;;;;;5077710;28;20044;-76
2023/04/24 10:35:11;;;;;;;6.30;2.25;;;;;;;;;;5074715;28;20059;-75
2023/04/24 10:37:38;;;;;;;4.13;2.20;;;;;;;;;;5063419;28;20040;-76
2023/04/24 10:40:05;;;;;;;5.25;2.17;;;;;;;;;;5035590;28;20072;-75
2023/04/24 10:42:31;;;;;;;5.93;2.40;;;;;;;;;;5055163;28;20032;-76
2023/04/24 10:44:57;;;;;;;3.42;2.00;;;;;;;;;;5048001;28;20447;-76
2023/04/24 10:47:25;;;;;;;8.27;2.42;;;;;;;;;;5039677;28;20057;-76
2023/04/24 10:49:51;;;;;;;4.70;2.13;;;;;;;;;;5051798;28;20105;-76
2023/04/24 10:52:17;;;;;;;5.40;2.47;;;;;;;;;;5059108;28;20041;-76
2023/04/24 10:54:49;;;;;;;5.82;2.35;;;;;;;;;;5042968;28;20143;-75
2023/04/24 10:57:24;;;;;;;8.55;2.63;;;;;;;;;;5070502;28;20385;-76
2023/04/24 10:59:51;;;;;;;3.50;2.10;;;;;;;;;;5043522;28;20049;-76
2023/04/24 11:02:17;;;;;;;8.80;3.03;;;;;;;;;;5065231;28;20121;-76
2023/04/24 11:04:43;;;;;;;4.53;2.28;;;;;;;;;;5052777;28;20032;-76
2023/04/24 11:07:10;;;;;;;4.00;2.33;;;;;;;;;;5062422;28;20080;-76
2023/04/24 11:09:36;;;;;;;5.78;2.80;;;;;;;;;;5049366;28;20037;-76
2023/04/24 11:12:10;;;;;;;6.72;2.38;;;;;;;;;;5044210;28;20048;-76
2023/04/24 11:14:55;;;;;;;8.02;2.97;;;;;;;;;;5068841;28;20106;-76
2023/04/24 11:17:34;;;;;;;7.60;2.30;;;;;;;;;;5067782;28;20051;-75
2023/04/24 11:20:17;;;;;;;6.22;2.30;;;;;;;;;;5048164;28;20053;-76
2023/04/24 11:22:43;;;;;;;6.30;1.90;;;;;;;;;;5046296;28;20197;-76
2023/04/24 11:25:11;;;;;;;9.70;2.28;;;;;;;;;;5045384;28;20053;-76
2023/04/24 11:27:45;;;;;;;6.15;2.00;;;;;;;;;;5037300;28;20060;-76
2023/04/24 11:30:12;;;;;;;6.38;2.20;;;;;;;;;;5064218;28;20043;-76
2023/04/24 11:32:39;;;;;;;7.35;2.17;;;;;;;;;;5050606;28;20040;-76
2023/04/24 11:35:27;;;;;;;5.15;2.30;;;;;;;;;;5050232;28;20047;-76
2023/04/24 11:37:54;;;;;;;9.23;2.03;;;;;;;;;;5052404;28;20040;-76
2023/04/24 11:40:22;;;;;;;5.95;1.80;;;;;;;;;;5049934;28;20131;-76
2023/04/24 11:42:49;;;;;;;2.70;1.65;;;;;;;;;;5061610;28;20033;-76
2023/04/24 11:45:16;;;;;;;4.30;1.92;;;;;;;;;;5067592;28;20056;-76
2023/04/24 11:47:43;;;;;;;5.03;2.03;;;;;;;;;;5047195;28;20984;-76
2023/04/24 11:50:11;;;;;;;10.57;2.65;;;;;;;;;;5062830;28;20186;-76
2023/04/24 11:52:38;;;;;;;4.18;2.05;;;;;;;;;;5068559;28;20059;-76
2023/04/24 11:55:04;;;;;;;3.00;1.77;;;;;;;;;;5060049;28;20048;-76
2023/04/24 11:57:34;;;;;;;4.63;1.92;;;;;;;;;;5064996;28;20045;-76
2023/04/24 12:00:05;;;;;;;6.15;2.08;;;;;;;;;;5069027;28;20063;-75
2023/04/24 12:02:31;;;;;;;4.70;1.83;;;;;;;;;;5065712;28;20049;-75
2023/04/24 12:04:57;;;;;;;6.32;2.42;;;;;;;;;;5064963;28;20081;-75
2023/04/24 12:07:24;;;;;;;5.95;2.28;;;;;;;;;;5050210;28;20059;-76
2023/04/24 12:09:57;;;;;;;4.80;2.20;;;;;;;;;;5062123;28;20104;-76
2023/04/24 12:12:25;;;;;;;9.88;2.33;;;;;;;;;;5071234;28;20052;-76
2023/04/24 12:14:54;;;;;;;5.07;2.15;;;;;;;;;;5074397;28;20044;-76
2023/04/24 12:17:26;;;;;;;2.00;1.80;;;;;;;;;;5067105;28;20481;-75
2023/04/24 12:19:53;;;;;;;4.05;1.80;;;;;;;;;;5054710;28;20415;-76
2023/04/24 12:22:19;;;;;;;3.67;1.85;;;;;;;;;;5070337;28;20062;-76
2023/04/24 12:25:01;;;;;;;5.43;2.22;;;;;;;;;;5062716;28;20068;-75
2023/04/24 12:27:29;;;;;;;5.57;1.83;;;;;;;;;;5046005;28;20716;-75
2023/04/24 12:29:58;;;;;;;6.25;2.30;;;;;;;;;;5048736;28;20658;-76
2023/04/24 12:32:25;;;;;;;6.70;2.45;;;;;;;;;;5055059;28;20056;-76
2023/04/24 12:34:51;;;;;;;5.28;2.33;;;;;;;;;;5052642;28;20135;-76
2023/04/24 12:37:18;;;;;;;8.38;2.80;;;;;;;;;;5042170;28;20079;-76
2023/04/24 12:40:02;;;;;;;10.35;3.08;;;;;;;;;;5050727;28;20128;-76
2023/04/24 12:42:29;;;;;;;6.05;2.40;;;;;;;;;;5047676;28;20069;-76
2023/04/24 12:44:59;;;;;;;12.52;2.95;;;;;;;;;;5072079;28;20547;-76
2023/04/24 12:47:26;;;;;;;8.98;2.60;;;;;;;;;;5071965;28;20174;-76
2023/04/24 12:49:52;;;;;;;10.75;3.00;;;;;;;;;;5052813;28;20036;-75
2023/04/24 12:52:23;;;;;;;9.07;3.00;;;;;;;;;;5067966;28;20044;-76
2023/04/24 12:54:49;;;;;;;10.02;2.75;;;;;;;;;;5038881;28;20572;-75
2023/04/24 12:57:18;;;;;;;9.13;3.03;;;;;;;;;;5065814;28;20076;-76
2023/04/24 12:59:44;;;;;;;9.65;3.40;;;;;;;;;;5058488;28;20127;-76
2023/04/24 13:02:10;;;;;;;10.65;3.50;;;;;;;;;;5067109;28;20045;-76
2023/04/24 13:04:36;;;;;;;9.48;3.75;;;;;;;;;;5069180;28;20106;-75
2023/04/24 13:07:02;;;;;;;4.55;2.78;;;;;;;;;;5041444;28;20044;-76
2023/04/24 13:09:29;;;;;;;7.60;3.00;;;;;;;;;;5067322;28;20044;-75
2023/04/24 13:11:56;;;;;;;9.25;3.50;;;;;;;;;;5047792;28;20100;-75
2023/04/24 13:14:22;;;;;;;8.95;3.00;;;;;;;;;;5068679;28;20132;-76
2023/04/24 13:16:48;;;;;;;6.10;2.72;;;;;;;;;;5046546;28;20131;-75
2023/04/24 13:19:15;;;;;;;8.90;2.85;;;;;;;;;;5053089;28;20439;-75
2023/04/24 13:21:41;;;;;;;8.20;3.00;;;;;;;;;;5048254;28;20396;-75
2023/04/24 13:24:07;;;;;;;9.73;2.97;;;;;;;;;;5048857;28;20044;-75
2023/04/24 13:26:33;;;;;;;13.82;3.42;;;;;;;;;;5069015;28;20380;-76
2023/04/24 13:28:59;;;;;;;12.40;4.63;;;;;;;;;;5045246;28;20438;-75
2023/04/24 13:31:26;;;;;;;8.07;2.90;;;;;;;;;;5071238;28;20773;-76
2023/04/24 13:33:52;;;;;;;4.35;2.20;;;;;;;;;;5062458;28;20044;-75
2023/04/24 13:36:18;;;;;;;7.88;2.78;;;;;;;;;;5070510;28;20041;-75
2023/04/24 13:38:47;;;;;;;9.02;3.00;;;;;;;;;;5039865;28;20037;-76
2023/04/24 13:41:13;;;;;;;15.57;3.65;;;;;;;;;;5067572;28;20135;-75
2023/04/24 13:43:39;;;;;;;9.98;3.83;;;;;;;;;;5065312;28;20124;-75
2023/04/24 13:46:05;;;;;;;12.02;3.90;;;;;;;;;;5046633;28;20136;-75
2023/04/24 13:48:31;;;;;;;9.18;3.05;;;;;;;;;;5049366;28;20120;-75
2023/04/24 13:50:57;;;;;;;8.88;3.58;;;;;;;;;;5061457;28;20563;-75
2023/04/24 13:53:23;;;;;;;12.02;3.83;;;;;;;;;;5064086;28;20396;-75
2023/04/24 13:55:49;;;;;;;12.32;3.92;;;;;;;;;;5052504;28;20052;-75
2023/04/24 13:58:15;;;;;;;8.07;3.58;;;;;;;;;;5065583;28;20092;-76
2023/04/24 14:00:41;;;;;;;10.38;3.85;;;;;;;;;;5068821;28;20044;-76
2023/04/24 14:03:07;;;;;;;9.88;4.43;;;;;;;;;;5058387;28;20041;-75
2023/04/24 14:05:33;;;;;;;8.93;3.90;;;;;;;;;;5070948;28;20407;-76
2023/04/24 14:07:59;;;;;;;12.68;3.75;;;;;;;;;;5066074;28;20060;-76
2023/04/24 14:10:26;;;;;;;13.95;4.47;;;;;;;;;;5060634;28;20048;-76
2023/04/24 14:12:53;;;;;;;15.75;4.03;;;;;;;;;;5048960;28;20048;-76
2023/04/24 14:15:19;;;;;;;11.48;4.07;;;;;;;;;;5049984;28;20047;-75
2023/04/24 14:17:45;;;;;;;9.88;4.20;;;;;;;;;;5069004;28;20045;-75
2023/04/24 14:20:12;;;;;;;7.93;3.38;;;;;;;;;;5063874;28;20059;-75
2023/04/24 14:22:38;;;;;;;13.93;4.18;;;;;;;;;;5064122;28;20048;-76
2023/04/24 14:25:06;;;;;;;11.48;4.22;;;;;;;;;;5046972;28;20124;-76
2023/04/24 14:27:34;;;;;;;8.15;3.80;;;;;;;;;;5068266;28;20048;-75
2023/04/24 14:30:00;;;;;;;10.15;4.10;;;;;;;;;;5053580;28;20066;-75
2023/04/24 14:32:26;;;;;;;7.85;3.83;;;;;;;;;;5071196;28;20055;-76
2023/04/24 14:34:52;;;;;;;12.25;3.83;;;;;;;;;;5054368;28;20123;-75
2023/04/24 14:37:18;;;;;;;13.98;3.88;;;;;;;;;;5052728;28;20463;-74